sensor_id;sensor_type;location;lat;lon;timestamp;temperature;humidity
25953;DHT22;13750;50.804;8.764;2023-05-28T00:01:08;15.00;59.20
25953;DHT22;13750;50.804;8.764;2023-05-28T00:03:34;15.00;59.30
25953;DHT22;13750;50.804;8.764;2023-05-28T00:06:01;15.00;59.20
25953;DHT22;13750;50.804;8.764;2023-05-28T00:08:27;15.00;59.30
25953;DHT22;13750;50.804;8.764;2023-05-28T00:10:52;14.90;59.20
25953;DHT22;13750;50.804;8.764;2023-05-28T00:13:28;14.90;59.40
25953;DHT22;13750;50.804;8.764;2023-05-28T00:15:54;14.90;59.40
25953;DHT22;13750;50.804;8.764;2023-05-28T00:18:20;14.80;59.50
25953;DHT22;13750;50.804;8.764;2023-05-28T00:20:46;14.80;59.70
25953;DHT22;13750;50.804;8.764;2023-05-28T00:23:13;14.80;59.80
25953;DHT22;13750;50.804;8.764;2023-05-28T00:25:40;14.70;59.80
25953;DHT22;13750;50.804;8.764;2023-05-28T00:28:05;14.70;59.90
25953;DHT22;13750;50.804;8.764;2023-05-28T00:30:31;14.70;59.80
25953;DHT22;13750;50.804;8.764;2023-05-28T00:32:56;14.60;59.90
25953;DHT22;13750;50.804;8.764;2023-05-28T00:35:25;14.60;60.00
25953;DHT22;13750;50.804;8.764;2023-05-28T00:37:50;14.60;60.00
25953;DHT22;13750;50.804;8.764;2023-05-28T00:40:17;14.60;60.00
25953;DHT22;13750;50.804;8.764;2023-05-28T00:42:44;14.60;60.00
25953;DHT22;13750;50.804;8.764;2023-05-28T00:45:10;14.50;60.10
25953;DHT22;13750;50.804;8.764;2023-05-28T00:47:37;14.50;60.20
25953;DHT22;13750;50.804;8.764;2023-05-28T00:50:06;14.50;60.20
25953;DHT22;13750;50.804;8.764;2023-05-28T00:52:32;14.40;60.50
25953;DHT22;13750;50.804;8.764;2023-05-28T00:54:58;14.30;60.60
25953;DHT22;13750;50.804;8.764;2023-05-28T00:57:24;14.30;60.80
25953;DHT22;13750;50.804;8.764;2023-05-28T00:59:51;14.30;61.00
25953;DHT22;13750;50.804;8.764;2023-05-28T01:02:17;14.20;61.20
25953;DHT22;13750;50.804;8.764;2023-05-28T01:04:42;14.20;61.40
25953;DHT22;13750;50.804;8.764;2023-05-28T01:07:08;14.10;61.40
25953;DHT22;13750;50.804;8.764;2023-05-28T01:09:34;14.10;61.50
25953;DHT22;13750;50.804;8.764;2023-05-28T01:12:01;14.10;61.40
25953;DHT22;13750;50.804;8.764;2023-05-28T01:14:27;14.10;61.30
25953;DHT22;13750;50.804;8.764;2023-05-28T01:16:55;14.10;61.20
25953;DHT22;13750;50.804;8.764;2023-05-28T01:19:24;14.10;61.30
25953;DHT22;13750;50.804;8.764;2023-05-28T01:21:58;14.10;61.30
25953;DHT22;13750;50.804;8.764;2023-05-28T01:24:27;14.00;61.50
25953;DHT22;13750;50.804;8.764;2023-05-28T01:26:55;13.90;61.60
25953;DHT22;13750;50.804;8.764;2023-05-28T01:29:21;13.90;61.80
25953;DHT22;13750;50.804;8.764;2023-05-28T01:31:46;13.90;61.80
25953;DHT22;13750;50.804;8.764;2023-05-28T01:34:12;13.90;61.70
25953;DHT22;13750;50.804;8.764;2023-05-28T01:37:16;13.90;61.70
25953;DHT22;13750;50.804;8.764;2023-05-28T01:39:45;13.80;61.80
25953;DHT22;13750;50.804;8.764;2023-05-28T01:42:12;13.80;61.80
25953;DHT22;13750;50.804;8.764;2023-05-28T01:44:38;13.80;61.80
25953;DHT22;13750;50.804;8.764;2023-05-28T01:47:05;13.80;61.90
25953;DHT22;13750;50.804;8.764;2023-05-28T01:49:31;13.80;61.90
25953;DHT22;13750;50.804;8.764;2023-05-28T01:51:56;13.70;62.00
25953;DHT22;13750;50.804;8.764;2023-05-28T01:54:22;13.70;62.00
25953;DHT22;13750;50.804;8.764;2023-05-28T01:56:48;13.60;62.00
25953;DHT22;13750;50.804;8.764;2023-05-28T01:59:13;13.60;62.10
25953;DHT22;13750;50.804;8.764;2023-05-28T02:01:39;13.60;62.20
25953;DHT22;13750;50.804;8.764;2023-05-28T02:04:05;13.50;62.40
25953;DHT22;13750;50.804;8.764;2023-05-28T02:06:32;13.50;62.50
25953;DHT22;13750;50.804;8.764;2023-05-28T02:08:58;13.50;62.60
25953;DHT22;13750;50.804;8.764;2023-05-28T02:11:23;13.40;62.60
25953;DHT22;13750;50.804;8.764;2023-05-28T02:13:50;13.40;62.60
25953;DHT22;13750;50.804;8.764;2023-05-28T02:16:17;13.40;63.00
25953;DHT22;13750;50.804;8.764;2023-05-28T02:18:46;13.40;63.10
25953;DHT22;13750;50.804;8.764;2023-05-28T02:21:13;13.30;63.20
25953;DHT22;13750;50.804;8.764;2023-05-28T02:23:44;13.30;63.40
25953;DHT22;13750;50.804;8.764;2023-05-28T02:26:10;13.30;63.50
25953;DHT22;13750;50.804;8.764;2023-05-28T02:28:36;13.20;63.80
25953;DHT22;13750;50.804;8.764;2023-05-28T02:31:02;13.20;64.10
25953;DHT22;13750;50.804;8.764;2023-05-28T02:33:27;13.20;63.90
25953;DHT22;13750;50.804;8.764;2023-05-28T02:35:54;13.10;63.90
25953;DHT22;13750;50.804;8.764;2023-05-28T02:38:20;13.10;63.80
25953;DHT22;13750;50.804;8.764;2023-05-28T02:40:46;13.10;63.70
25953;DHT22;13750;50.804;8.764;2023-05-28T02:43:11;13.10;63.90
25953;DHT22;13750;50.804;8.764;2023-05-28T02:45:37;13.10;63.90
25953;DHT22;13750;50.804;8.764;2023-05-28T02:48:02;13.10;64.20
25953;DHT22;13750;50.804;8.764;2023-05-28T02:50:28;13.10;64.00
25953;DHT22;13750;50.804;8.764;2023-05-28T02:52:53;13.00;64.30
25953;DHT22;13750;50.804;8.764;2023-05-28T02:55:19;13.00;64.60
25953;DHT22;13750;50.804;8.764;2023-05-28T02:57:45;12.90;64.60
25953;DHT22;13750;50.804;8.764;2023-05-28T03:00:12;12.90;64.50
25953;DHT22;13750;50.804;8.764;2023-05-28T03:02:38;12.90;64.50
25953;DHT22;13750;50.804;8.764;2023-05-28T03:05:04;12.90;64.50
25953;DHT22;13750;50.804;8.764;2023-05-28T03:07:29;12.80;64.50
25953;DHT22;13750;50.804;8.764;2023-05-28T03:09:56;12.80;64.80
25953;DHT22;13750;50.804;8.764;2023-05-28T03:12:22;12.70;65.30
25953;DHT22;13750;50.804;8.764;2023-05-28T03:14:48;12.60;65.70
25953;DHT22;13750;50.804;8.764;2023-05-28T03:17:13;12.60;66.00
25953;DHT22;13750;50.804;8.764;2023-05-28T03:19:39;12.50;66.30
25953;DHT22;13750;50.804;8.764;2023-05-28T03:22:04;12.50;66.40
25953;DHT22;13750;50.804;8.764;2023-05-28T03:24:30;12.50;66.40
25953;DHT22;13750;50.804;8.764;2023-05-28T03:27:00;12.40;66.60
25953;DHT22;13750;50.804;8.764;2023-05-28T03:29:25;12.40;66.40
25953;DHT22;13750;50.804;8.764;2023-05-28T03:31:51;12.40;66.60
25953;DHT22;13750;50.804;8.764;2023-05-28T03:34:17;12.40;66.60
25953;DHT22;13750;50.804;8.764;2023-05-28T03:36:43;12.40;66.40
25953;DHT22;13750;50.804;8.764;2023-05-28T03:39:09;12.40;66.20
25953;DHT22;13750;50.804;8.764;2023-05-28T03:41:35;12.40;66.10
25953;DHT22;13750;50.804;8.764;2023-05-28T03:44:01;12.40;66.00
25953;DHT22;13750;50.804;8.764;2023-05-28T03:46:27;12.40;65.90
25953;DHT22;13750;50.804;8.764;2023-05-28T03:48:52;12.40;65.80
25953;DHT22;13750;50.804;8.764;2023-05-28T03:51:18;12.40;65.80
25953;DHT22;13750;50.804;8.764;2023-05-28T03:53:43;12.40;65.70
25953;DHT22;13750;50.804;8.764;2023-05-28T03:56:09;12.40;65.70
25953;DHT22;13750;50.804;8.764;2023-05-28T03:58:35;12.30;65.70
25953;DHT22;13750;50.804;8.764;2023-05-28T04:01:00;12.20;65.70
25953;DHT22;13750;50.804;8.764;2023-05-28T04:03:26;12.20;65.90
25953;DHT22;13750;50.804;8.764;2023-05-28T04:05:52;12.20;66.10
25953;DHT22;13750;50.804;8.764;2023-05-28T04:08:18;12.20;66.20
25953;DHT22;13750;50.804;8.764;2023-05-28T04:10:43;12.20;66.20
25953;DHT22;13750;50.804;8.764;2023-05-28T04:13:09;12.20;66.30
25953;DHT22;13750;50.804;8.764;2023-05-28T04:15:34;12.20;66.30
25953;DHT22;13750;50.804;8.764;2023-05-28T04:18:00;12.20;66.30
25953;DHT22;13750;50.804;8.764;2023-05-28T04:20:25;12.20;66.20
25953;DHT22;13750;50.804;8.764;2023-05-28T04:22:51;12.20;66.20
25953;DHT22;13750;50.804;8.764;2023-05-28T04:25:17;12.20;66.20
25953;DHT22;13750;50.804;8.764;2023-05-28T04:27:44;12.10;66.30
25953;DHT22;13750;50.804;8.764;2023-05-28T04:30:11;12.10;66.40
25953;DHT22;13750;50.804;8.764;2023-05-28T04:32:36;12.10;66.40
25953;DHT22;13750;50.804;8.764;2023-05-28T04:35:07;12.10;66.50
25953;DHT22;13750;50.804;8.764;2023-05-28T04:37:36;12.10;66.50
25953;DHT22;13750;50.804;8.764;2023-05-28T04:40:06;12.20;66.50
25953;DHT22;13750;50.804;8.764;2023-05-28T04:42:31;12.20;66.30
25953;DHT22;13750;50.804;8.764;2023-05-28T04:44:57;12.20;66.20
25953;DHT22;13750;50.804;8.764;2023-05-28T04:47:23;12.20;66.10
25953;DHT22;13750;50.804;8.764;2023-05-28T04:49:49;12.20;66.10
25953;DHT22;13750;50.804;8.764;2023-05-28T04:52:15;12.20;66.10
25953;DHT22;13750;50.804;8.764;2023-05-28T04:54:42;12.20;66.10
25953;DHT22;13750;50.804;8.764;2023-05-28T04:57:07;12.30;66.10
25953;DHT22;13750;50.804;8.764;2023-05-28T04:59:33;12.30;66.10
25953;DHT22;13750;50.804;8.764;2023-05-28T05:02:00;12.30;66.10
25953;DHT22;13750;50.804;8.764;2023-05-28T05:04:25;12.30;66.10
25953;DHT22;13750;50.804;8.764;2023-05-28T05:06:51;12.40;66.10
25953;DHT22;13750;50.804;8.764;2023-05-28T05:09:16;12.40;66.00
25953;DHT22;13750;50.804;8.764;2023-05-28T05:11:42;12.50;66.00
25953;DHT22;13750;50.804;8.764;2023-05-28T05:14:07;12.50;65.90
25953;DHT22;13750;50.804;8.764;2023-05-28T05:16:33;12.50;65.80
25953;DHT22;13750;50.804;8.764;2023-05-28T05:18:59;12.50;65.70
25953;DHT22;13750;50.804;8.764;2023-05-28T05:21:24;12.50;65.70
25953;DHT22;13750;50.804;8.764;2023-05-28T05:23:50;12.50;65.70
25953;DHT22;13750;50.804;8.764;2023-05-28T05:26:15;12.60;65.80
25953;DHT22;13750;50.804;8.764;2023-05-28T05:28:44;12.60;65.70
25953;DHT22;13750;50.804;8.764;2023-05-28T05:31:10;12.60;65.60
25953;DHT22;13750;50.804;8.764;2023-05-28T05:33:40;12.60;65.80
25953;DHT22;13750;50.804;8.764;2023-05-28T05:36:07;12.70;65.80
25953;DHT22;13750;50.804;8.764;2023-05-28T05:38:33;12.70;65.70
25953;DHT22;13750;50.804;8.764;2023-05-28T05:40:58;12.70;65.70
25953;DHT22;13750;50.804;8.764;2023-05-28T05:43:24;12.70;65.80
25953;DHT22;13750;50.804;8.764;2023-05-28T05:45:49;12.80;65.80
25953;DHT22;13750;50.804;8.764;2023-05-28T05:48:15;12.80;65.70
25953;DHT22;13750;50.804;8.764;2023-05-28T05:50:48;12.80;65.60
25953;DHT22;13750;50.804;8.764;2023-05-28T05:53:14;12.90;65.60
25953;DHT22;13750;50.804;8.764;2023-05-28T05:55:40;12.90;65.50
25953;DHT22;13750;50.804;8.764;2023-05-28T05:58:06;12.90;65.40
25953;DHT22;13750;50.804;8.764;2023-05-28T06:00:31;12.90;65.30
25953;DHT22;13750;50.804;8.764;2023-05-28T06:02:57;13.00;65.20
25953;DHT22;13750;50.804;8.764;2023-05-28T06:05:22;13.00;65.10
25953;DHT22;13750;50.804;8.764;2023-05-28T06:07:48;13.10;65.10
25953;DHT22;13750;50.804;8.764;2023-05-28T06:10:13;13.10;65.00
25953;DHT22;13750;50.804;8.764;2023-05-28T06:12:39;13.20;64.90
25953;DHT22;13750;50.804;8.764;2023-05-28T06:15:05;13.20;64.80
25953;DHT22;13750;50.804;8.764;2023-05-28T06:17:31;13.20;64.70
25953;DHT22;13750;50.804;8.764;2023-05-28T06:19:59;13.30;64.40
25953;DHT22;13750;50.804;8.764;2023-05-28T06:22:25;13.40;64.30
25953;DHT22;13750;50.804;8.764;2023-05-28T06:24:51;13.40;64.10
25953;DHT22;13750;50.804;8.764;2023-05-28T06:27:19;13.50;64.10
25953;DHT22;13750;50.804;8.764;2023-05-28T06:29:44;13.60;63.90
25953;DHT22;13750;50.804;8.764;2023-05-28T06:32:11;13.60;63.90
25953;DHT22;13750;50.804;8.764;2023-05-28T06:34:38;13.60;63.50
25953;DHT22;13750;50.804;8.764;2023-05-28T06:37:04;13.70;63.40
25953;DHT22;13750;50.804;8.764;2023-05-28T06:39:32;13.70;63.40
25953;DHT22;13750;50.804;8.764;2023-05-28T06:41:57;13.80;63.30
25953;DHT22;13750;50.804;8.764;2023-05-28T06:44:23;13.90;63.10
25953;DHT22;13750;50.804;8.764;2023-05-28T06:46:48;13.90;63.10
25953;DHT22;13750;50.804;8.764;2023-05-28T06:49:14;14.00;63.20
25953;DHT22;13750;50.804;8.764;2023-05-28T06:51:39;14.00;63.20
25953;DHT22;13750;50.804;8.764;2023-05-28T06:54:05;14.10;63.20
25953;DHT22;13750;50.804;8.764;2023-05-28T06:56:31;14.20;63.10
25953;DHT22;13750;50.804;8.764;2023-05-28T06:58:56;14.20;63.10
25953;DHT22;13750;50.804;8.764;2023-05-28T07:01:22;14.20;63.20
25953;DHT22;13750;50.804;8.764;2023-05-28T07:03:47;14.30;63.20
25953;DHT22;13750;50.804;8.764;2023-05-28T07:06:14;14.40;63.20
25953;DHT22;13750;50.804;8.764;2023-05-28T07:08:40;14.50;63.10
25953;DHT22;13750;50.804;8.764;2023-05-28T07:11:12;14.50;63.10
25953;DHT22;13750;50.804;8.764;2023-05-28T07:13:38;14.60;63.00
25953;DHT22;13750;50.804;8.764;2023-05-28T07:16:05;14.60;62.70
25953;DHT22;13750;50.804;8.764;2023-05-28T07:18:30;14.70;62.60
25953;DHT22;13750;50.804;8.764;2023-05-28T07:20:56;14.70;62.60
25953;DHT22;13750;50.804;8.764;2023-05-28T07:23:22;14.80;62.40
25953;DHT22;13750;50.804;8.764;2023-05-28T07:25:47;14.90;62.30
25953;DHT22;13750;50.804;8.764;2023-05-28T07:28:13;14.90;62.20
25953;DHT22;13750;50.804;8.764;2023-05-28T07:30:40;15.00;62.00
25953;DHT22;13750;50.804;8.764;2023-05-28T07:33:06;15.00;61.90
25953;DHT22;13750;50.804;8.764;2023-05-28T07:35:31;15.10;61.70
25953;DHT22;13750;50.804;8.764;2023-05-28T07:37:57;15.10;61.60
25953;DHT22;13750;50.804;8.764;2023-05-28T07:40:22;15.10;61.50
25953;DHT22;13750;50.804;8.764;2023-05-28T07:42:48;15.20;61.40
25953;DHT22;13750;50.804;8.764;2023-05-28T07:45:13;15.20;61.20
25953;DHT22;13750;50.804;8.764;2023-05-28T07:47:39;15.30;61.00
25953;DHT22;13750;50.804;8.764;2023-05-28T07:50:05;15.40;60.70
25953;DHT22;13750;50.804;8.764;2023-05-28T07:52:31;15.40;60.70
25953;DHT22;13750;50.804;8.764;2023-05-28T07:54:57;15.40;60.60
25953;DHT22;13750;50.804;8.764;2023-05-28T07:57:24;15.50;60.40
25953;DHT22;13750;50.804;8.764;2023-05-28T07:59:50;15.50;60.30
25953;DHT22;13750;50.804;8.764;2023-05-28T08:02:16;15.60;60.40
25953;DHT22;13750;50.804;8.764;2023-05-28T08:04:41;15.60;60.40
25953;DHT22;13750;50.804;8.764;2023-05-28T08:07:07;15.60;60.30
25953;DHT22;13750;50.804;8.764;2023-05-28T08:09:35;15.60;60.10
25953;DHT22;13750;50.804;8.764;2023-05-28T08:12:01;15.70;59.90
25953;DHT22;13750;50.804;8.764;2023-05-28T08:14:29;15.70;60.00
25953;DHT22;13750;50.804;8.764;2023-05-28T08:16:55;15.70;60.10
25953;DHT22;13750;50.804;8.764;2023-05-28T08:19:21;15.70;60.20
25953;DHT22;13750;50.804;8.764;2023-05-28T08:21:46;15.80;60.20
25953;DHT22;13750;50.804;8.764;2023-05-28T08:24:12;15.90;60.10
25953;DHT22;13750;50.804;8.764;2023-05-28T08:26:37;15.90;59.90
25953;DHT22;13750;50.804;8.764;2023-05-28T08:29:03;15.90;59.80
25953;DHT22;13750;50.804;8.764;2023-05-28T08:31:30;16.00;59.70
25953;DHT22;13750;50.804;8.764;2023-05-28T08:33:56;16.00;59.90
25953;DHT22;13750;50.804;8.764;2023-05-28T08:36:21;16.10;59.60
25953;DHT22;13750;50.804;8.764;2023-05-28T08:38:47;16.10;59.50
25953;DHT22;13750;50.804;8.764;2023-05-28T08:41:13;16.10;59.40
25953;DHT22;13750;50.804;8.764;2023-05-28T08:43:38;16.20;59.40
25953;DHT22;13750;50.804;8.764;2023-05-28T08:46:04;16.20;59.50
25953;DHT22;13750;50.804;8.764;2023-05-28T08:48:33;16.20;59.60
25953;DHT22;13750;50.804;8.764;2023-05-28T08:51:00;16.30;59.70
25953;DHT22;13750;50.804;8.764;2023-05-28T08:53:26;16.30;59.60
25953;DHT22;13750;50.804;8.764;2023-05-28T08:55:56;16.40;59.00
25953;DHT22;13750;50.804;8.764;2023-05-28T08:58:22;16.40;58.30
25953;DHT22;13750;50.804;8.764;2023-05-28T09:00:48;16.40;58.30
25953;DHT22;13750;50.804;8.764;2023-05-28T09:03:14;16.50;58.20
25953;DHT22;13750;50.804;8.764;2023-05-28T09:05:40;16.50;58.20
25953;DHT22;13750;50.804;8.764;2023-05-28T09:08:07;16.60;58.20
25953;DHT22;13750;50.804;8.764;2023-05-28T09:10:34;16.60;58.20
25953;DHT22;13750;50.804;8.764;2023-05-28T09:13:00;16.70;58.30
25953;DHT22;13750;50.804;8.764;2023-05-28T09:15:26;16.70;58.10
25953;DHT22;13750;50.804;8.764;2023-05-28T09:17:52;16.70;58.10
25953;DHT22;13750;50.804;8.764;2023-05-28T09:20:18;16.80;58.20
25953;DHT22;13750;50.804;8.764;2023-05-28T09:22:44;16.80;58.30
25953;DHT22;13750;50.804;8.764;2023-05-28T09:25:10;16.80;58.40
25953;DHT22;13750;50.804;8.764;2023-05-28T09:27:37;16.90;58.80
25953;DHT22;13750;50.804;8.764;2023-05-28T09:30:11;17.10;58.50
25953;DHT22;13750;50.804;8.764;2023-05-28T09:32:38;17.10;58.30
25953;DHT22;13750;50.804;8.764;2023-05-28T09:35:07;17.10;58.10
25953;DHT22;13750;50.804;8.764;2023-05-28T09:37:34;17.10;57.90
25953;DHT22;13750;50.804;8.764;2023-05-28T09:40:04;17.20;58.00
25953;DHT22;13750;50.804;8.764;2023-05-28T09:42:40;17.30;57.80
25953;DHT22;13750;50.804;8.764;2023-05-28T09:45:08;17.40;57.80
25953;DHT22;13750;50.804;8.764;2023-05-28T09:47:44;17.40;57.80
25953;DHT22;13750;50.804;8.764;2023-05-28T09:50:11;17.50;57.30
25953;DHT22;13750;50.804;8.764;2023-05-28T09:52:43;17.60;57.10
25953;DHT22;13750;50.804;8.764;2023-05-28T09:55:14;17.70;56.50
25953;DHT22;13750;50.804;8.764;2023-05-28T09:58:06;17.80;55.80
25953;DHT22;13750;50.804;8.764;2023-05-28T10:00:38;17.80;55.70
25953;DHT22;13750;50.804;8.764;2023-05-28T10:03:55;17.80;55.50
25953;DHT22;13750;50.804;8.764;2023-05-28T10:06:05;17.90;54.90
25953;DHT22;13750;50.804;8.764;2023-05-28T10:08:33;17.90;53.90
25953;DHT22;13750;50.804;8.764;2023-05-28T10:11:03;17.90;53.30
25953;DHT22;13750;50.804;8.764;2023-05-28T10:13:31;17.90;52.60
25953;DHT22;13750;50.804;8.764;2023-05-28T10:15:57;18.00;52.30
25953;DHT22;13750;50.804;8.764;2023-05-28T10:18:24;18.00;52.20
25953;DHT22;13750;50.804;8.764;2023-05-28T10:20:51;18.10;51.90
25953;DHT22;13750;50.804;8.764;2023-05-28T10:23:17;18.10;50.90
25953;DHT22;13750;50.804;8.764;2023-05-28T10:25:42;18.10;50.60
25953;DHT22;13750;50.804;8.764;2023-05-28T10:28:08;18.10;50.40
25953;DHT22;13750;50.804;8.764;2023-05-28T10:30:38;18.10;50.60
25953;DHT22;13750;50.804;8.764;2023-05-28T10:33:08;18.10;51.10
25953;DHT22;13750;50.804;8.764;2023-05-28T10:35:35;18.10;51.30
25953;DHT22;13750;50.804;8.764;2023-05-28T10:38:14;18.10;51.50
25953;DHT22;13750;50.804;8.764;2023-05-28T10:40:40;18.20;51.40
25953;DHT22;13750;50.804;8.764;2023-05-28T10:46:49;18.40;50.40
25953;DHT22;13750;50.804;8.764;2023-05-28T10:49:14;18.40;49.80
25953;DHT22;13750;50.804;8.764;2023-05-28T10:51:57;18.50;49.00
25953;DHT22;13750;50.804;8.764;2023-05-28T11:02:10;18.70;48.40
25953;DHT22;13750;50.804;8.764;2023-05-28T11:04:35;18.80;48.50
25953;DHT22;13750;50.804;8.764;2023-05-28T11:07:02;18.80;48.90
25953;DHT22;13750;50.804;8.764;2023-05-28T11:09:28;18.80;48.80
25953;DHT22;13750;50.804;8.764;2023-05-28T11:11:58;18.90;48.70
25953;DHT22;13750;50.804;8.764;2023-05-28T11:14:24;19.00;48.30
25953;DHT22;13750;50.804;8.764;2023-05-28T11:16:49;19.00;48.40
25953;DHT22;13750;50.804;8.764;2023-05-28T11:19:15;19.00;47.60
25953;DHT22;13750;50.804;8.764;2023-05-28T11:21:52;19.00;45.90
25953;DHT22;13750;50.804;8.764;2023-05-28T11:24:18;19.10;44.10
25953;DHT22;13750;50.804;8.764;2023-05-28T11:26:44;19.20;43.80
25953;DHT22;13750;50.804;8.764;2023-05-28T11:29:12;19.10;44.50
25953;DHT22;13750;50.804;8.764;2023-05-28T11:31:41;19.20;44.70
25953;DHT22;13750;50.804;8.764;2023-05-28T11:34:08;19.20;45.00
25953;DHT22;13750;50.804;8.764;2023-05-28T11:36:43;19.20;45.40
25953;DHT22;13750;50.804;8.764;2023-05-28T11:39:09;19.30;45.90
25953;DHT22;13750;50.804;8.764;2023-05-28T11:41:35;19.30;46.40
25953;DHT22;13750;50.804;8.764;2023-05-28T11:44:00;19.30;44.30
25953;DHT22;13750;50.804;8.764;2023-05-28T11:46:26;19.50;43.30
25953;DHT22;13750;50.804;8.764;2023-05-28T11:48:52;19.60;43.60
25953;DHT22;13750;50.804;8.764;2023-05-28T11:51:21;19.60;44.10
25953;DHT22;13750;50.804;8.764;2023-05-28T11:53:46;19.60;44.40
25953;DHT22;13750;50.804;8.764;2023-05-28T11:56:13;19.60;45.10
25953;DHT22;13750;50.804;8.764;2023-05-28T11:58:46;19.60;44.90
25953;DHT22;13750;50.804;8.764;2023-05-28T12:01:14;19.60;44.60
25953;DHT22;13750;50.804;8.764;2023-05-28T12:03:40;19.60;45.40
25953;DHT22;13750;50.804;8.764;2023-05-28T12:06:06;19.60;45.60
25953;DHT22;13750;50.804;8.764;2023-05-28T12:08:32;19.60;45.60
25953;DHT22;13750;50.804;8.764;2023-05-28T12:11:03;19.60;44.40
25953;DHT22;13750;50.804;8.764;2023-05-28T12:13:33;19.60;43.90
25953;DHT22;13750;50.804;8.764;2023-05-28T12:16:10;19.60;44.40
25953;DHT22;13750;50.804;8.764;2023-05-28T12:18:40;19.60;45.40
25953;DHT22;13750;50.804;8.764;2023-05-28T12:21:12;19.60;46.00
25953;DHT22;13750;50.804;8.764;2023-05-28T12:23:38;19.60;46.80
25953;DHT22;13750;50.804;8.764;2023-05-28T12:26:09;19.60;46.70
25953;DHT22;13750;50.804;8.764;2023-05-28T12:28:35;19.70;44.80
25953;DHT22;13750;50.804;8.764;2023-05-28T12:31:05;19.70;43.40
25953;DHT22;13750;50.804;8.764;2023-05-28T12:33:31;19.70;41.60
25953;DHT22;13750;50.804;8.764;2023-05-28T12:35:56;19.90;40.10
25953;DHT22;13750;50.804;8.764;2023-05-28T12:38:23;20.00;41.10
25953;DHT22;13750;50.804;8.764;2023-05-28T12:40:48;20.10;41.30
25953;DHT22;13750;50.804;8.764;2023-05-28T12:43:14;20.10;41.70
25953;DHT22;13750;50.804;8.764;2023-05-28T12:45:40;20.10;38.70
25953;DHT22;13750;50.804;8.764;2023-05-28T12:48:05;20.10;36.90
25953;DHT22;13750;50.804;8.764;2023-05-28T12:50:31;20.10;38.80
25953;DHT22;13750;50.804;8.764;2023-05-28T12:52:56;20.10;40.50
25953;DHT22;13750;50.804;8.764;2023-05-28T12:55:22;20.10;41.70
25953;DHT22;13750;50.804;8.764;2023-05-28T12:57:48;20.10;43.00
25953;DHT22;13750;50.804;8.764;2023-05-28T13:00:13;20.10;43.60
25953;DHT22;13750;50.804;8.764;2023-05-28T13:02:40;20.10;39.20
25953;DHT22;13750;50.804;8.764;2023-05-28T13:05:06;20.20;37.50
25953;DHT22;13750;50.804;8.764;2023-05-28T13:07:32;20.50;36.70
25953;DHT22;13750;50.804;8.764;2023-05-28T13:09:57;20.60;37.40
25953;DHT22;13750;50.804;8.764;2023-05-28T13:12:24;20.60;38.10
25953;DHT22;13750;50.804;8.764;2023-05-28T13:14:49;20.60;39.40
25953;DHT22;13750;50.804;8.764;2023-05-28T13:17:15;20.70;40.60
25953;DHT22;13750;50.804;8.764;2023-05-28T13:19:40;20.70;40.60
25953;DHT22;13750;50.804;8.764;2023-05-28T13:22:06;20.70;41.60
25953;DHT22;13750;50.804;8.764;2023-05-28T13:24:36;20.80;41.40
25953;DHT22;13750;50.804;8.764;2023-05-28T13:27:01;20.90;41.30
25953;DHT22;13750;50.804;8.764;2023-05-28T13:29:27;20.90;42.00
25953;DHT22;13750;50.804;8.764;2023-05-28T13:31:52;20.90;42.40
25953;DHT22;13750;50.804;8.764;2023-05-28T13:34:18;21.00;41.50
25953;DHT22;13750;50.804;8.764;2023-05-28T13:36:43;21.10;41.10
25953;DHT22;13750;50.804;8.764;2023-05-28T13:39:09;21.10;41.40
25953;DHT22;13750;50.804;8.764;2023-05-28T13:41:35;21.20;40.80
25953;DHT22;13750;50.804;8.764;2023-05-28T13:44:00;21.20;40.60
25953;DHT22;13750;50.804;8.764;2023-05-28T13:46:26;21.30;41.20
25953;DHT22;13750;50.804;8.764;2023-05-28T13:48:53;21.30;41.20
25953;DHT22;13750;50.804;8.764;2023-05-28T13:51:19;21.30;41.50
25953;DHT22;13750;50.804;8.764;2023-05-28T13:53:45;21.40;42.10
25953;DHT22;13750;50.804;8.764;2023-05-28T13:56:12;21.50;40.00
25953;DHT22;13750;50.804;8.764;2023-05-28T13:58:38;21.60;39.60
25953;DHT22;13750;50.804;8.764;2023-05-28T14:01:04;21.60;40.10
25953;DHT22;13750;50.804;8.764;2023-05-28T14:03:30;21.60;40.70
25953;DHT22;13750;50.804;8.764;2023-05-28T14:05:55;21.60;41.50
25953;DHT22;13750;50.804;8.764;2023-05-28T14:08:21;21.60;42.00
25953;DHT22;13750;50.804;8.764;2023-05-28T14:10:48;21.60;42.10
25953;DHT22;13750;50.804;8.764;2023-05-28T14:13:14;21.60;42.50
25953;DHT22;13750;50.804;8.764;2023-05-28T14:15:39;21.60;42.70
25953;DHT22;13750;50.804;8.764;2023-05-28T14:18:05;21.60;42.90
25953;DHT22;13750;50.804;8.764;2023-05-28T14:20:31;21.60;43.00
25953;DHT22;13750;50.804;8.764;2023-05-28T14:23:00;21.60;42.70
25953;DHT22;13750;50.804;8.764;2023-05-28T14:25:26;21.60;43.00
25953;DHT22;13750;50.804;8.764;2023-05-28T14:27:52;21.60;43.10
25953;DHT22;13750;50.804;8.764;2023-05-28T14:30:17;21.70;43.40
25953;DHT22;13750;50.804;8.764;2023-05-28T14:32:43;21.70;43.60
25953;DHT22;13750;50.804;8.764;2023-05-28T14:35:09;21.70;42.90
25953;DHT22;13750;50.804;8.764;2023-05-28T14:37:35;21.80;42.90
25953;DHT22;13750;50.804;8.764;2023-05-28T14:40:00;22.00;42.00
25953;DHT22;13750;50.804;8.764;2023-05-28T14:42:26;22.20;41.50
25953;DHT22;13750;50.804;8.764;2023-05-28T14:44:51;22.30;41.80
25953;DHT22;13750;50.804;8.764;2023-05-28T14:47:17;22.30;41.10
25953;DHT22;13750;50.804;8.764;2023-05-28T14:49:42;22.50;40.50
25953;DHT22;13750;50.804;8.764;2023-05-28T14:52:28;22.60;40.80
25953;DHT22;13750;50.804;8.764;2023-05-28T14:54:55;22.70;40.40
25953;DHT22;13750;50.804;8.764;2023-05-28T14:57:22;22.90;40.10
25953;DHT22;13750;50.804;8.764;2023-05-28T14:59:49;23.00;40.40
25953;DHT22;13750;50.804;8.764;2023-05-28T15:02:15;23.10;39.70
25953;DHT22;13750;50.804;8.764;2023-05-28T15:04:44;23.10;40.00
25953;DHT22;13750;50.804;8.764;2023-05-28T15:07:11;23.20;39.90
25953;DHT22;13750;50.804;8.764;2023-05-28T15:09:38;23.30;40.30
25953;DHT22;13750;50.804;8.764;2023-05-28T15:12:04;23.40;40.50
25953;DHT22;13750;50.804;8.764;2023-05-28T15:14:34;23.50;40.70
25953;DHT22;13750;50.804;8.764;2023-05-28T15:17:01;23.60;40.50
25953;DHT22;13750;50.804;8.764;2023-05-28T15:19:27;23.60;40.90
25953;DHT22;13750;50.804;8.764;2023-05-28T15:21:52;23.60;40.80
25953;DHT22;13750;50.804;8.764;2023-05-28T15:24:18;23.70;40.90
25953;DHT22;13750;50.804;8.764;2023-05-28T15:26:44;23.80;40.60
25953;DHT22;13750;50.804;8.764;2023-05-28T15:29:12;23.90;39.40
25953;DHT22;13750;50.804;8.764;2023-05-28T15:31:40;24.10;38.60
25953;DHT22;13750;50.804;8.764;2023-05-28T15:34:06;24.20;37.70
25953;DHT22;13750;50.804;8.764;2023-05-28T15:36:32;24.40;37.70
25953;DHT22;13750;50.804;8.764;2023-05-28T15:38:58;24.60;37.50